createdAt,value
2022-12-18T00:02:49.779Z,101660.66
2022-12-18T00:05:53.273Z,101658.91
2022-12-18T00:08:57.463Z,101635.06
2022-12-18T00:11:59.790Z,101668.59
2022-12-18T00:15:02.137Z,101688.13
2022-12-18T00:18:05.537Z,101678.00
2022-12-18T00:21:11.341Z,101693.16
2022-12-18T00:24:13.713Z,101664.94
2022-12-18T00:27:16.095Z,101639.88
2022-12-18T00:30:18.684Z,101710.81
2022-12-18T00:33:21.017Z,101690.34
2022-12-18T00:36:29.101Z,101683.97
2022-12-18T00:39:31.502Z,101714.91
2022-12-18T00:42:53.550Z,101719.97
2022-12-18T00:45:55.944Z,101730.00
2022-12-18T00:48:58.457Z,101717.72
2022-12-18T00:52:00.810Z,101738.53
2022-12-18T00:55:06.435Z,101744.34
2022-12-18T00:58:10.462Z,101748.84
2022-12-18T01:01:12.843Z,101747.59
2022-12-18T01:04:16.272Z,101759.63
2022-12-18T01:07:21.376Z,101716.72
2022-12-18T01:10:24.598Z,101724.56
2022-12-18T01:13:27.766Z,101741.59
2022-12-18T01:16:30.173Z,101733.53
2022-12-18T01:19:33.217Z,101757.75
2022-12-18T01:22:36.311Z,101742.13
2022-12-18T01:25:39.647Z,101779.97
2022-12-18T01:28:45.820Z,101775.16
2022-12-18T01:31:48.305Z,101748.19
2022-12-18T01:34:50.726Z,101778.22
2022-12-18T01:37:56.210Z,101747.94
2022-12-18T01:40:59.816Z,101788.22
2022-12-18T01:44:02.122Z,101763.88
2022-12-18T01:47:04.774Z,101765.75
2022-12-18T01:50:15.727Z,101806.06
2022-12-18T01:53:24.579Z,101800.56
2022-12-18T01:56:27.030Z,101798.78
2022-12-18T01:59:32.386Z,101814.94
2022-12-18T02:02:35.274Z,101781.94
2022-12-18T02:06:02.335Z,101817.16
2022-12-18T02:09:19.384Z,101814.41
2022-12-18T02:12:25.515Z,101794.53
2022-12-18T02:15:49.398Z,101832.50
2022-12-18T02:18:59.118Z,101803.97
2022-12-18T02:22:13.243Z,101842.88
2022-12-18T02:25:43.634Z,101851.44
2022-12-18T02:29:01.479Z,101823.16
2022-12-18T02:32:11.458Z,101843.78
2022-12-18T02:35:19.612Z,101863.47
2022-12-18T02:38:23.681Z,101861.81
2022-12-18T02:41:28.398Z,101868.88
2022-12-18T02:44:30.814Z,101873.84
2022-12-18T02:47:39.094Z,101877.16
2022-12-18T02:51:28.936Z,101875.31
2022-12-18T02:54:54.570Z,101850.66
2022-12-18T02:58:11.435Z,101862.41
2022-12-18T03:01:24.175Z,101894.97
2022-12-18T03:04:39.418Z,101886.03
2022-12-18T03:07:57.330Z,101870.03
2022-12-18T03:11:05.708Z,101917.88
2022-12-18T03:14:12.519Z,101880.38
2022-12-18T03:17:20.410Z,101915.66
2022-12-18T03:20:25.592Z,101907.59
2022-12-18T03:23:35.602Z,101901.22
2022-12-18T03:26:44.561Z,101893.19
2022-12-18T03:30:11.195Z,101925.84
2022-12-18T03:33:20.720Z,101902.34
2022-12-18T03:36:25.705Z,101924.13
2022-12-18T03:39:28.366Z,101921.47
2022-12-18T03:42:40.438Z,101935.38
2022-12-18T03:45:58.584Z,101942.97
2022-12-18T03:49:23.534Z,101942.44
2022-12-18T03:52:25.954Z,101956.47
2022-12-18T03:55:34.588Z,101960.09
2022-12-18T03:58:42.276Z,101969.31
2022-12-18T04:01:56.003Z,101934.91
2022-12-18T04:05:03.668Z,101977.31
2022-12-18T04:08:06.288Z,101948.16
2022-12-18T04:11:12.360Z,101987.66
2022-12-18T04:14:17.988Z,101961.84
2022-12-18T04:17:22.902Z,101974.94
2022-12-18T04:20:25.878Z,101992.81
2022-12-18T04:23:29.387Z,101966.63
2022-12-18T04:26:34.214Z,101992.09
2022-12-18T04:29:50.345Z,102014.03
2022-12-18T04:32:54.135Z,101981.09
2022-12-18T04:35:57.723Z,101974.50
2022-12-18T04:39:01.522Z,102021.09
2022-12-18T04:42:04.035Z,102022.13
2022-12-18T04:45:07.159Z,102033.44
2022-12-18T04:48:09.618Z,102033.97
2022-12-18T04:51:12.951Z,101998.44
2022-12-18T04:54:15.310Z,102032.97
2022-12-18T04:57:19.023Z,102045.34
2022-12-18T05:00:21.811Z,102047.84
2022-12-18T05:03:24.251Z,102059.31
2022-12-18T05:06:26.659Z,102034.31
2022-12-18T05:09:29.026Z,102039.69
2022-12-18T05:12:32.530Z,102036.59
2022-12-18T05:15:35.372Z,102070.75
2022-12-18T05:18:38.083Z,102057.66
2022-12-18T05:21:40.416Z,102060.69
2022-12-18T05:24:42.801Z,102100.13
2022-12-18T05:27:45.951Z,102103.50
2022-12-18T05:30:53.332Z,102100.25
2022-12-18T05:33:55.753Z,102106.22
2022-12-18T05:36:58.148Z,102116.16
2022-12-18T05:40:00.667Z,102106.22
2022-12-18T05:43:03.054Z,102091.66
2022-12-18T05:46:12.639Z,102088.78
2022-12-18T05:49:15.225Z,102108.28
2022-12-18T05:52:17.834Z,102097.25
2022-12-18T05:55:20.204Z,102131.06
2022-12-18T05:58:22.584Z,102081.00
2022-12-18T06:01:27.439Z,102120.84
2022-12-18T06:04:30.045Z,102142.38
2022-12-18T06:07:32.387Z,102137.19
2022-12-18T06:10:34.823Z,102128.34
2022-12-18T06:13:39.288Z,102101.72
2022-12-18T06:16:41.950Z,102177.63
2022-12-18T06:19:44.301Z,102170.59
2022-12-18T06:22:46.866Z,102178.19
2022-12-18T06:25:49.182Z,102139.22
2022-12-18T06:28:51.556Z,102180.81
2022-12-18T06:31:54.006Z,102184.06
2022-12-18T06:34:56.546Z,102185.28
2022-12-18T06:37:58.949Z,102179.47
2022-12-18T06:41:01.473Z,102190.66
2022-12-18T06:44:04.126Z,102195.09
2022-12-18T06:47:06.503Z,102202.72
2022-12-18T06:50:08.934Z,102183.88
2022-12-18T06:53:11.291Z,102183.84
2022-12-18T06:56:13.882Z,102198.56
2022-12-18T06:59:16.339Z,102188.28
2022-12-18T07:02:19.018Z,102198.28
2022-12-18T07:05:21.490Z,102235.50
2022-12-18T07:08:24.059Z,102231.56
2022-12-18T07:11:26.557Z,102239.81
2022-12-18T07:14:28.937Z,102237.97
2022-12-18T07:17:32.334Z,102247.28
2022-12-18T07:20:34.762Z,102255.59
2022-12-18T07:23:37.880Z,102235.47
2022-12-18T07:26:40.518Z,102271.38
2022-12-18T07:29:42.879Z,102243.03
2022-12-18T07:32:45.238Z,102225.47
2022-12-18T07:35:47.624Z,102283.50
2022-12-18T07:38:50.757Z,102281.84
2022-12-18T07:42:11.578Z,102296.97
2022-12-18T07:45:16.005Z,102289.06
2022-12-18T07:48:18.410Z,102291.84
2022-12-18T07:51:20.895Z,102263.94
2022-12-18T07:54:24.138Z,102282.78
2022-12-18T07:57:49.413Z,102299.72
2022-12-18T08:00:48.896Z,102309.81
2022-12-18T08:03:52.213Z,102300.28
2022-12-18T08:06:54.783Z,102267.00
2022-12-18T08:09:57.186Z,102318.47
2022-12-18T08:13:04.555Z,102293.41
2022-12-18T08:16:09.070Z,102295.59
2022-12-18T08:19:11.550Z,102299.47
2022-12-18T08:22:13.970Z,102327.16
2022-12-18T08:25:16.524Z,102298.69
2022-12-18T08:28:19.046Z,102300.59
2022-12-18T08:31:22.354Z,102327.94
2022-12-18T08:34:25.949Z,102309.78
2022-12-18T08:37:28.346Z,102324.28
2022-12-18T08:40:30.799Z,102334.69
2022-12-18T08:43:51.944Z,102313.13
2022-12-18T08:46:54.312Z,102319.13
2022-12-18T08:49:56.827Z,102346.47
2022-12-18T08:52:59.218Z,102341.19
2022-12-18T08:56:01.582Z,102349.97
2022-12-18T08:59:05.391Z,102357.69
2022-12-18T09:02:10.988Z,102362.31
2022-12-18T09:05:13.580Z,102364.56
2022-12-18T09:08:15.925Z,102382.16
2022-12-18T09:11:24.391Z,102390.75
2022-12-18T09:14:26.823Z,102361.41
2022-12-18T09:17:29.259Z,102363.16
2022-12-18T09:20:31.646Z,102361.44
2022-12-18T09:23:34.047Z,102374.25
2022-12-18T09:26:37.415Z,102400.66
2022-12-18T09:29:40.594Z,102370.75
2022-12-18T09:32:43.002Z,102381.16
2022-12-18T09:35:46.567Z,102398.91
2022-12-18T09:38:49.092Z,102404.81
2022-12-18T09:41:58.951Z,102407.81
2022-12-18T09:45:01.973Z,102405.41
2022-12-18T09:48:08.117Z,102374.09
2022-12-18T09:51:18.515Z,102402.78
2022-12-18T09:54:31.307Z,102401.91
2022-12-18T09:57:38.393Z,102398.00
2022-12-18T10:00:44.085Z,102410.34
2022-12-18T10:03:46.836Z,102382.53
2022-12-18T10:07:17.722Z,102408.50
2022-12-18T10:10:50.561Z,102413.66
2022-12-18T10:13:56.482Z,102409.84
2022-12-18T10:17:09.323Z,102410.63
2022-12-18T10:20:30.356Z,102406.28
2022-12-18T10:23:58.314Z,102405.28
2022-12-18T10:27:15.515Z,102399.28
2022-12-18T10:30:20.639Z,102394.47
2022-12-18T10:33:25.502Z,102390.06
2022-12-18T10:36:27.907Z,102396.84
2022-12-18T10:39:30.402Z,102364.72
2022-12-18T10:42:32.922Z,102394.63
2022-12-18T10:45:36.105Z,102406.91
2022-12-18T10:48:48.524Z,102361.91
2022-12-18T10:51:52.495Z,102406.00
2022-12-18T10:55:04.746Z,102415.22
2022-12-18T10:58:35.317Z,102412.84
2022-12-18T11:01:48.697Z,102399.38
2022-12-18T11:04:52.805Z,102375.66
2022-12-18T11:07:55.481Z,102353.41
2022-12-18T11:10:57.907Z,102378.56
2022-12-18T11:14:05.345Z,102382.16
2022-12-18T11:17:29.219Z,102317.31
2022-12-18T11:20:37.530Z,102380.81
2022-12-18T11:24:18.731Z,102374.97
2022-12-18T11:27:21.961Z,102336.16
2022-12-18T11:30:27.136Z,102388.56
2022-12-18T11:33:29.568Z,102353.97
2022-12-18T11:36:38.003Z,102392.19
2022-12-18T11:39:53.947Z,102389.59
2022-12-18T11:43:04.858Z,102365.66
2022-12-18T11:46:19.664Z,102327.38
2022-12-18T11:49:27.884Z,102388.06
2022-12-18T11:52:39.241Z,102391.91
2022-12-18T11:56:30.615Z,102388.84
2022-12-18T11:59:46.283Z,102377.38
2022-12-18T12:02:57.641Z,102386.94
2022-12-18T12:06:20.531Z,102359.09
2022-12-18T12:09:34.998Z,102368.81
2022-12-18T12:12:55.734Z,102382.19
2022-12-18T12:16:10.870Z,102351.34
2022-12-18T12:19:37.914Z,102388.03
2022-12-18T12:23:16.200Z,102386.41
2022-12-18T12:26:41.472Z,102375.09
2022-12-18T12:30:00.051Z,102350.41
2022-12-18T12:33:22.362Z,102380.81
2022-12-18T12:36:47.933Z,102355.16
2022-12-18T12:39:53.601Z,102378.56
2022-12-18T12:43:14.372Z,102385.72
2022-12-18T12:46:20.933Z,102383.06
2022-12-18T12:49:30.113Z,102366.25
2022-12-18T12:52:52.018Z,102399.84
2022-12-18T12:55:55.919Z,102405.78
2022-12-18T12:59:24.600Z,102408.19
2022-12-18T13:02:34.338Z,102423.06
2022-12-18T13:05:54.077Z,102413.19
2022-12-18T13:09:01.659Z,102414.13
2022-12-18T13:12:34.991Z,102420.53
2022-12-18T13:16:20.423Z,102427.97
2022-12-18T13:19:26.378Z,102409.75
2022-12-18T13:22:37.278Z,102430.13
2022-12-18T13:25:39.797Z,102433.53
2022-12-18T13:28:48.275Z,102441.13
2022-12-18T13:31:50.637Z,102438.44
2022-12-18T13:35:18.949Z,102439.22
2022-12-18T13:38:36.642Z,102441.81
2022-12-18T13:41:39.382Z,102454.50
2022-12-18T13:44:42.757Z,102453.41
2022-12-18T13:47:46.578Z,102465.53
2022-12-18T13:51:10.134Z,102440.91
2022-12-18T13:54:31.230Z,102479.81
2022-12-18T13:57:44.766Z,102452.44
2022-12-18T14:00:47.281Z,102484.38
2022-12-18T14:03:51.315Z,102477.25
2022-12-18T14:06:58.311Z,102470.63
2022-12-18T14:10:12.618Z,102454.56
2022-12-18T14:13:35.546Z,102500.88
2022-12-18T14:16:37.945Z,102507.03
2022-12-18T14:19:51.907Z,102514.19
2022-12-18T14:22:55.463Z,102508.03
2022-12-18T14:26:02.235Z,102480.91
2022-12-18T14:29:28.898Z,102478.16
2022-12-18T14:32:31.229Z,102515.59
2022-12-18T14:35:36.278Z,102509.16
2022-12-18T14:38:41.018Z,102509.66
2022-12-18T14:41:43.434Z,102509.63
2022-12-18T14:48:19.115Z,102486.56
2022-12-18T14:51:28.193Z,102482.28
2022-12-18T14:54:32.399Z,102507.50
2022-12-18T14:57:38.890Z,102525.53
2022-12-18T15:00:43.451Z,102516.69
2022-12-18T15:03:45.970Z,102524.63
2022-12-18T15:06:49.271Z,102521.53
2022-12-18T15:10:23.179Z,102528.72
2022-12-18T15:13:25.899Z,102533.56
2022-12-18T15:16:28.985Z,102509.88
2022-12-18T15:19:43.696Z,102552.38
2022-12-18T15:22:48.476Z,102522.00
2022-12-18T15:25:58.510Z,102562.97
2022-12-18T15:29:03.695Z,102541.16
2022-12-18T15:32:20.090Z,102533.69
2022-12-18T15:35:25.214Z,102556.63
2022-12-18T15:38:28.037Z,102537.94
2022-12-18T15:41:36.040Z,102505.38
2022-12-18T15:44:38.835Z,102560.22
2022-12-18T15:47:44.980Z,102568.03
2022-12-18T15:50:47.739Z,102573.75
2022-12-18T15:53:53.910Z,102531.34
2022-12-18T15:57:14.665Z,102546.34
2022-12-18T16:00:17.795Z,102558.78
2022-12-18T16:03:20.458Z,102571.00
2022-12-18T16:06:23.572Z,102577.63
2022-12-18T16:09:26.367Z,102580.44
2022-12-18T16:12:29.473Z,102578.53
2022-12-18T16:15:32.011Z,102584.06
2022-12-18T16:18:34.635Z,102555.16
2022-12-18T16:21:37.617Z,102592.66
2022-12-18T16:24:40.111Z,102591.75
2022-12-18T16:27:42.715Z,102611.00
2022-12-18T16:30:46.467Z,102604.69
2022-12-18T16:33:48.929Z,102588.06
2022-12-18T16:36:51.384Z,102618.50
2022-12-18T16:39:53.959Z,102596.16
2022-12-18T16:42:56.371Z,102633.31
2022-12-18T16:46:00.312Z,102628.19
2022-12-18T16:49:02.982Z,102639.03
2022-12-18T16:52:06.653Z,102643.97
2022-12-18T16:55:10.027Z,102646.13
2022-12-18T16:58:13.080Z,102645.53
2022-12-18T17:01:15.854Z,102643.44
2022-12-18T17:04:18.410Z,102642.84
2022-12-18T17:07:21.167Z,102651.13
2022-12-18T17:10:23.948Z,102657.25
2022-12-18T17:13:27.607Z,102650.75
2022-12-18T17:16:30.277Z,102659.88
2022-12-18T17:19:33.975Z,102651.28
2022-12-18T17:22:36.382Z,102656.56
2022-12-18T17:25:41.819Z,102644.78
2022-12-18T17:28:44.501Z,102673.00
2022-12-18T17:31:48.139Z,102681.75
2022-12-18T17:34:50.785Z,102654.09
2022-12-18T17:37:53.313Z,102661.06
2022-12-18T17:41:01.440Z,102700.31
2022-12-18T17:44:06.205Z,102694.13
2022-12-18T17:47:12.025Z,102692.78
2022-12-18T17:50:14.814Z,102675.00
2022-12-18T17:53:17.399Z,102671.00
2022-12-18T17:56:22.084Z,102679.41
2022-12-18T17:59:24.967Z,102672.16
2022-12-18T18:02:27.759Z,102661.22
2022-12-18T18:05:30.870Z,102718.06
2022-12-18T18:08:35.208Z,102683.31
2022-12-18T18:11:56.316Z,102719.06
2022-12-18T18:14:59.160Z,102687.09
2022-12-18T18:18:01.999Z,102697.00
2022-12-18T18:21:06.303Z,102702.00
2022-12-18T18:24:11.284Z,102697.94
2022-12-18T18:27:14.107Z,102698.47
2022-12-18T18:30:16.923Z,102682.91
2022-12-18T18:33:19.659Z,102648.72
2022-12-18T18:36:23.607Z,102676.28
2022-12-18T18:39:26.813Z,102677.34
2022-12-18T18:42:29.983Z,102611.28
2022-12-18T18:45:32.619Z,102664.84
2022-12-18T18:48:37.354Z,102682.56
2022-12-18T18:51:41.542Z,102650.50
2022-12-18T18:55:10.732Z,102678.69
2022-12-18T18:58:10.134Z,102682.16
2022-12-18T19:01:18.016Z,102649.50
2022-12-18T19:04:20.879Z,102694.50
2022-12-18T19:07:30.347Z,102658.50
2022-12-18T19:10:33.675Z,102653.09
2022-12-18T19:13:36.318Z,102695.44
2022-12-18T19:16:39.609Z,102697.94
2022-12-18T19:19:42.423Z,102674.19
2022-12-18T19:22:54.972Z,102658.03
2022-12-18T19:26:26.932Z,102704.63
2022-12-18T19:29:26.554Z,102708.84
2022-12-18T19:32:29.155Z,102715.28
2022-12-18T19:35:31.744Z,102716.41
2022-12-18T19:38:34.965Z,102730.59
2022-12-18T19:41:38.002Z,102734.75
2022-12-18T19:44:41.081Z,102734.47
2022-12-18T19:47:44.023Z,102724.28
2022-12-18T19:50:46.583Z,102733.22
2022-12-18T19:53:54.942Z,102729.78
2022-12-18T19:57:00.630Z,102743.84
2022-12-18T20:00:04.139Z,102743.66
2022-12-18T20:03:25.248Z,102755.56
2022-12-18T20:06:32.510Z,102760.88
2022-12-18T20:09:36.849Z,102752.38
2022-12-18T20:12:39.822Z,102751.16
2022-12-18T20:15:45.363Z,102749.97
2022-12-18T20:18:49.217Z,102747.00
2022-12-18T20:21:51.750Z,102752.03
2022-12-18T20:24:54.300Z,102748.81
2022-12-18T20:27:56.873Z,102710.88
2022-12-18T20:31:02.134Z,102750.28
2022-12-18T20:34:06.217Z,102758.44
2022-12-18T20:37:19.462Z,102737.25
2022-12-18T20:40:23.619Z,102773.59
2022-12-18T20:43:26.157Z,102777.75
2022-12-18T20:46:28.593Z,102767.16
2022-12-18T20:49:30.997Z,102768.88
2022-12-18T20:52:33.622Z,102713.88
2022-12-18T20:55:41.394Z,102740.97
2022-12-18T20:58:44.135Z,102774.94
2022-12-18T21:01:48.813Z,102774.47
2022-12-18T21:04:53.261Z,102777.72
2022-12-18T21:07:55.734Z,102779.13
2022-12-18T21:11:35.842Z,102782.88
2022-12-18T21:14:38.269Z,102796.81
2022-12-18T21:17:45.012Z,102786.72
2022-12-18T21:20:47.989Z,102763.81
2022-12-18T21:23:51.160Z,102764.44
2022-12-18T21:26:54.465Z,102751.25
2022-12-18T21:29:56.910Z,102787.63
2022-12-18T21:32:59.498Z,102784.31
2022-12-18T21:36:06.473Z,102765.16
2022-12-18T21:39:09.114Z,102759.59
2022-12-18T21:42:30.454Z,102790.13
2022-12-18T21:45:33.197Z,102764.25
2022-12-18T21:48:38.406Z,102797.16
2022-12-18T21:51:41.222Z,102799.59
2022-12-18T21:54:43.687Z,102762.72
2022-12-18T21:57:46.246Z,102764.31
2022-12-18T22:00:50.123Z,102768.22
2022-12-18T22:03:53.045Z,102756.00
2022-12-18T22:06:55.755Z,102761.34
2022-12-18T22:09:58.456Z,102766.22
2022-12-18T22:13:02.311Z,102755.22
2022-12-18T22:16:05.050Z,102788.94
2022-12-18T22:19:07.697Z,102784.84
2022-12-18T22:22:10.070Z,102793.25
2022-12-18T22:25:12.591Z,102790.88
2022-12-18T22:28:33.323Z,102787.72
2022-12-18T22:31:36.023Z,102785.00
2022-12-18T22:34:39.453Z,102765.97
2022-12-18T22:37:41.842Z,102774.44
2022-12-18T22:40:44.213Z,102741.97
2022-12-18T22:43:46.654Z,102777.25
2022-12-18T22:47:05.519Z,102723.13
2022-12-18T22:50:12.997Z,102767.09
2022-12-18T22:53:15.378Z,102740.78
2022-12-18T22:56:21.366Z,102786.31
2022-12-18T22:59:24.310Z,102737.09
2022-12-18T23:02:26.978Z,102764.97
2022-12-18T23:05:30.958Z,102751.91
2022-12-18T23:08:34.876Z,102807.03
2022-12-18T23:11:37.267Z,102798.50
2022-12-18T23:14:39.618Z,102795.47
2022-12-18T23:17:41.981Z,102802.28
2022-12-18T23:20:44.371Z,102795.38
2022-12-18T23:23:46.810Z,102716.00
2022-12-18T23:26:49.210Z,102807.44
2022-12-18T23:29:51.585Z,102806.41
2022-12-18T23:32:55.118Z,102793.94
2022-12-18T23:36:02.209Z,102762.44
2022-12-18T23:39:04.718Z,102792.28
2022-12-18T23:42:07.092Z,102758.88
2022-12-18T23:45:15.859Z,102802.94
2022-12-18T23:48:21.154Z,102805.84
2022-12-18T23:51:25.627Z,102807.22
2022-12-18T23:54:33.232Z,102806.88
2022-12-18T23:57:36.139Z,102815.03
